createdAt,value
2022-11-20T00:01:44.304Z,100438.90
2022-11-20T00:04:16.696Z,100430.13
2022-11-20T00:06:48.969Z,100421.54
2022-11-20T00:09:21.990Z,100415.23
2022-11-20T00:11:54.696Z,100400.55
2022-11-20T00:14:26.916Z,100393.36
2022-11-20T00:16:59.133Z,100390.88
2022-11-20T00:19:31.824Z,100387.90
2022-11-20T00:22:02.371Z,100389.54
2022-11-20T00:24:38.841Z,100393.16
2022-11-20T00:27:14.453Z,100399.64
2022-11-20T00:29:44.997Z,100406.24
2022-11-20T00:32:17.369Z,100397.12
2022-11-20T00:34:49.806Z,100399.40
2022-11-20T00:37:22.093Z,100406.31
2022-11-20T00:39:54.559Z,100414.42
2022-11-20T00:42:27.027Z,100412.30
2022-11-20T00:44:57.948Z,100395.96
2022-11-20T00:47:30.372Z,100377.56
2022-11-20T00:50:01.517Z,100381.93
2022-11-20T00:52:33.967Z,100376.07
2022-11-20T00:55:07.085Z,100369.36
2022-11-20T00:57:39.593Z,100358.98
2022-11-20T01:00:13.598Z,100358.70
2022-11-20T01:02:46.093Z,100355.06
2022-11-20T01:05:18.671Z,100349.91
2022-11-20T01:07:51.160Z,100351.77
2022-11-20T01:10:23.699Z,100358.39
2022-11-20T01:13:09.939Z,100359.14
2022-11-20T01:19:59.640Z,100349.32
2022-11-20T01:22:32.104Z,100346.80
2022-11-20T01:25:04.639Z,100355.52
2022-11-20T01:27:37.055Z,100348.45
2022-11-20T01:30:11.741Z,100351.61
2022-11-20T01:32:44.162Z,100351.38
2022-11-20T01:35:16.651Z,100352.91
2022-11-20T01:37:49.117Z,100357.89
2022-11-20T01:40:21.751Z,100345.86
2022-11-20T01:43:18.318Z,100347.85
2022-11-20T01:46:08.919Z,100343.59
2022-11-20T01:48:45.338Z,100352.93
2022-11-20T01:51:23.682Z,100340.98
2022-11-20T01:53:58.491Z,100341.25
2022-11-20T01:56:31.388Z,100336.98
2022-11-20T01:59:06.444Z,100324.30
2022-11-20T02:07:52.472Z,100302.43
2022-11-20T02:10:25.024Z,100294.77
2022-11-20T02:13:15.455Z,100305.10
2022-11-20T02:15:48.372Z,100298.77
2022-11-20T02:18:23.254Z,100288.31
2022-11-20T02:20:58.846Z,100299.65
2022-11-20T02:23:38.742Z,100306.10
2022-11-20T02:26:13.727Z,100304.80
2022-11-20T02:28:46.156Z,100304.40
2022-11-20T02:31:18.598Z,100302.50
2022-11-20T02:33:56.135Z,100300.38
2022-11-20T02:36:29.931Z,100292.88
2022-11-20T02:39:02.537Z,100278.92
2022-11-20T02:41:37.749Z,100282.08
2022-11-20T02:44:10.231Z,100280.07
2022-11-20T02:46:42.599Z,100274.08
2022-11-20T02:49:15.041Z,100277.27
2022-11-20T02:51:47.439Z,100283.74
2022-11-20T02:54:19.920Z,100288.87
2022-11-20T02:56:52.444Z,100275.10
2022-11-20T02:59:24.893Z,100265.64
2022-11-20T03:01:57.396Z,100267.11
2022-11-20T03:04:29.950Z,100264.54
2022-11-20T03:07:02.444Z,100263.48
2022-11-20T03:09:33.280Z,100260.84
2022-11-20T03:12:05.892Z,100261.42
2022-11-20T03:14:36.622Z,100259.80
2022-11-20T03:17:09.002Z,100265.86
2022-11-20T03:19:41.460Z,100264.05
2022-11-20T03:22:13.877Z,100265.66
2022-11-20T03:24:46.332Z,100277.20
2022-11-20T03:34:53.651Z,100293.48
2022-11-20T03:37:26.189Z,100293.95
2022-11-20T03:39:58.701Z,100291.44
2022-11-20T03:42:49.439Z,100284.95
2022-11-20T03:45:22.198Z,100298.38
2022-11-20T03:47:54.840Z,100288.14
2022-11-20T03:50:27.354Z,100273.33
2022-11-20T03:52:59.920Z,100256.38
2022-11-20T03:55:32.350Z,100245.54
2022-11-20T03:58:04.895Z,100229.64
2022-11-20T04:00:37.664Z,100211.54
2022-11-20T04:03:10.039Z,100208.83
2022-11-20T04:05:42.450Z,100202.38
2022-11-20T04:08:15.197Z,100183.56
2022-11-20T04:10:47.584Z,100177.11
2022-11-20T04:13:20.039Z,100181.25
2022-11-20T04:15:52.412Z,100178.69
2022-11-20T04:18:24.848Z,100169.36
2022-11-20T04:20:57.238Z,100160.12
2022-11-20T04:23:29.692Z,100161.91
2022-11-20T04:26:07.621Z,100161.83
2022-11-20T04:28:40.255Z,100159.59
2022-11-20T04:31:11.823Z,100159.77
2022-11-20T04:33:44.744Z,100162.71
2022-11-20T04:36:19.194Z,100182.13
2022-11-20T04:38:57.164Z,100191.05
2022-11-20T04:41:31.314Z,100197.00
2022-11-20T04:44:05.744Z,100188.45
2022-11-20T04:46:40.413Z,100195.52
2022-11-20T04:49:17.209Z,100196.96
2022-11-20T04:51:49.713Z,100218.05
2022-11-20T04:54:22.396Z,100219.67
2022-11-20T04:56:54.987Z,100235.41
2022-11-20T04:59:27.702Z,100254.56
2022-11-20T05:02:00.719Z,100272.42
2022-11-20T05:04:33.130Z,100273.46
2022-11-20T05:07:05.650Z,100271.20
2022-11-20T05:09:38.065Z,100266.35
2022-11-20T05:12:11.243Z,100270.06
2022-11-20T05:14:43.863Z,100286.67
2022-11-20T05:17:15.511Z,100301.54
2022-11-20T05:19:51.997Z,100343.20
2022-11-20T05:22:25.960Z,100362.85
2022-11-20T05:24:56.755Z,100358.24
2022-11-20T05:27:29.106Z,100352.84
2022-11-20T05:30:01.615Z,100343.98
2022-11-20T05:32:34.289Z,100330.39
2022-11-20T05:35:05.282Z,100318.16
2022-11-20T05:37:37.728Z,100324.98
2022-11-20T05:40:13.894Z,100332.21
2022-11-20T05:42:46.473Z,100339.09
2022-11-20T05:45:18.970Z,100353.77
2022-11-20T05:47:51.164Z,100352.05
2022-11-20T05:50:23.366Z,100363.60
2022-11-20T05:52:55.773Z,100373.51
2022-11-20T05:55:28.152Z,100370.34
2022-11-20T05:58:00.442Z,100367.21
2022-11-20T06:00:32.674Z,100362.45
2022-11-20T06:03:04.977Z,100358.09
2022-11-20T06:05:38.728Z,100358.03
2022-11-20T06:08:10.921Z,100374.92
2022-11-20T06:10:43.153Z,100382.16
2022-11-20T06:13:15.501Z,100386.15
2022-11-20T06:15:52.375Z,100388.25
2022-11-20T06:18:24.745Z,100379.03
2022-11-20T06:21:05.132Z,100386.88
2022-11-20T06:23:38.160Z,100406.75
2022-11-20T06:26:11.784Z,100414.27
2022-11-20T06:28:44.110Z,100430.68
2022-11-20T06:31:18.403Z,100424.45
2022-11-20T06:33:50.940Z,100406.14
2022-11-20T06:36:22.382Z,100405.46
2022-11-20T06:38:54.805Z,100413.84
2022-11-20T06:41:27.529Z,100432.23
2022-11-20T06:43:58.116Z,100433.52
2022-11-20T06:46:30.453Z,100422.48
2022-11-20T06:49:07.473Z,100403.10
2022-11-20T06:51:40.265Z,100383.21
2022-11-20T06:54:12.793Z,100382.35
2022-11-20T06:56:45.068Z,100376.81
2022-11-20T06:59:17.300Z,100363.61
2022-11-20T07:01:49.652Z,100360.33
2022-11-20T07:04:22.044Z,100354.80
2022-11-20T07:06:54.460Z,100360.36
2022-11-20T07:09:27.071Z,100352.66
2022-11-20T07:11:59.720Z,100350.13
2022-11-20T07:14:32.056Z,100347.19
2022-11-20T07:17:04.657Z,100341.87
2022-11-20T07:19:36.880Z,100331.78
2022-11-20T07:22:09.171Z,100327.45
2022-11-20T07:24:45.828Z,100325.68
2022-11-20T07:27:19.558Z,100305.70
2022-11-20T07:29:51.982Z,100285.95
2022-11-20T07:32:24.335Z,100283.40
2022-11-20T07:34:56.731Z,100279.36
2022-11-20T07:37:28.984Z,100274.55
2022-11-20T07:40:01.345Z,100273.87
2022-11-20T07:42:33.762Z,100283.90
2022-11-20T07:45:06.407Z,100272.62
2022-11-20T07:47:38.827Z,100281.91
2022-11-20T07:50:12.079Z,100304.80
2022-11-20T07:52:44.510Z,100310.61
2022-11-20T07:55:17.153Z,100328.38
2022-11-20T07:57:47.751Z,100341.54
2022-11-20T08:00:20.609Z,100343.22
2022-11-20T08:02:52.923Z,100349.77
2022-11-20T08:05:25.376Z,100358.90
2022-11-20T08:07:57.638Z,100352.48
2022-11-20T08:10:29.901Z,100334.98
2022-11-20T08:13:19.419Z,100335.83
2022-11-20T08:15:53.924Z,100341.61
2022-11-20T08:18:33.535Z,100342.36
2022-11-20T08:21:08.168Z,100349.75
2022-11-20T08:23:40.444Z,100344.86
2022-11-20T08:26:12.733Z,100337.92
2022-11-20T08:28:45.179Z,100350.02
2022-11-20T08:31:17.563Z,100372.64
2022-11-20T08:33:49.925Z,100380.95
2022-11-20T08:36:23.627Z,100361.50
2022-11-20T08:38:57.229Z,100352.91
2022-11-20T08:41:29.847Z,100352.52
2022-11-20T08:44:00.845Z,100369.67
2022-11-20T08:46:38.038Z,100375.41
2022-11-20T08:49:11.797Z,100385.20
2022-11-20T08:51:44.634Z,100390.00
2022-11-20T08:54:20.417Z,100394.25
2022-11-20T08:56:52.781Z,100402.65
2022-11-20T08:59:50.968Z,100401.57
2022-11-20T09:02:17.637Z,100392.94
2022-11-20T09:04:48.242Z,100388.83
2022-11-20T09:07:20.509Z,100385.86
2022-11-20T09:10:16.512Z,100411.61
2022-11-20T09:12:45.950Z,100402.48
2022-11-20T09:15:18.772Z,100405.42
2022-11-20T09:17:56.373Z,100432.73
2022-11-20T09:20:30.833Z,100421.52
2022-11-20T09:23:03.668Z,100416.92
2022-11-20T09:25:36.005Z,100423.07
2022-11-20T09:28:08.392Z,100415.63
2022-11-20T09:30:40.734Z,100399.88
2022-11-20T09:33:13.102Z,100385.67
2022-11-20T09:35:45.449Z,100374.15
2022-11-20T09:38:17.633Z,100376.82
2022-11-20T09:40:54.102Z,100394.90
2022-11-20T09:43:35.227Z,100391.45
2022-11-20T09:46:14.383Z,100389.89
2022-11-20T09:49:12.214Z,100402.58
2022-11-20T09:51:52.803Z,100393.35
2022-11-20T09:54:28.440Z,100389.27
2022-11-20T09:57:04.833Z,100406.84
2022-11-20T09:59:40.977Z,100406.18
2022-11-20T10:02:22.348Z,100377.81
2022-11-20T10:04:58.030Z,100412.71
2022-11-20T10:07:35.264Z,100386.47
2022-11-20T10:10:16.170Z,100377.94
2022-11-20T10:13:01.316Z,100391.23
2022-11-20T10:15:40.742Z,100404.02
2022-11-20T10:18:24.233Z,100394.84
2022-11-20T10:21:03.373Z,100396.27
2022-11-20T10:23:50.986Z,100395.42
2022-11-20T10:26:28.493Z,100408.76
2022-11-20T10:29:13.829Z,100401.48
2022-11-20T10:31:48.552Z,100400.23
2022-11-20T10:34:25.894Z,100401.08
2022-11-20T10:37:00.888Z,100386.35
2022-11-20T10:39:37.952Z,100395.55
2022-11-20T10:42:13.044Z,100403.44
2022-11-20T10:45:06.865Z,100386.52
2022-11-20T10:47:39.876Z,100396.91
2022-11-20T10:50:22.245Z,100400.83
2022-11-20T10:52:55.603Z,100407.95
2022-11-20T10:55:35.686Z,100398.50
2022-11-20T10:58:16.147Z,100391.48
2022-11-20T11:00:48.478Z,100391.56
2022-11-20T11:03:29.916Z,100387.30
2022-11-20T11:06:06.424Z,100360.52
2022-11-20T11:08:41.165Z,100351.38
2022-11-20T11:11:23.771Z,100376.34
2022-11-20T11:13:56.213Z,100372.58
2022-11-20T11:16:29.584Z,100352.02
2022-11-20T11:19:09.866Z,100334.20
2022-11-20T11:21:44.899Z,100333.14
2022-11-20T11:24:52.201Z,100334.77
2022-11-20T11:27:21.103Z,100372.73
2022-11-20T11:29:53.465Z,100378.75
2022-11-20T11:32:27.699Z,100361.48
2022-11-20T11:35:08.540Z,100374.02
2022-11-20T11:37:41.965Z,100358.66
2022-11-20T11:40:23.859Z,100340.94
2022-11-20T11:43:01.297Z,100345.39
2022-11-20T11:45:33.758Z,100357.08
2022-11-20T11:48:07.726Z,100374.42
2022-11-20T11:50:40.580Z,100375.19
2022-11-20T11:53:17.143Z,100366.02
2022-11-20T11:55:51.911Z,100376.88
2022-11-20T11:58:44.284Z,100380.98
2022-11-20T12:01:30.654Z,100390.38
2022-11-20T12:04:15.622Z,100392.80
2022-11-20T12:06:50.810Z,100388.98
2022-11-20T12:09:26.048Z,100386.73
2022-11-20T12:12:01.640Z,100387.71
2022-11-20T12:14:38.124Z,100395.43
2022-11-20T12:17:12.870Z,100387.96
2022-11-20T12:19:45.729Z,100389.00
2022-11-20T12:22:26.705Z,100396.18
2022-11-20T12:25:03.505Z,100400.75
2022-11-20T12:27:49.769Z,100394.71
2022-11-20T12:30:23.277Z,100395.23
2022-11-20T12:33:14.998Z,100388.05
2022-11-20T12:35:58.820Z,100379.90
2022-11-20T12:39:10.672Z,100388.73
2022-11-20T12:42:16.630Z,100376.15
2022-11-20T12:45:12.173Z,100366.94
2022-11-20T12:47:57.317Z,100366.78
2022-11-20T12:50:53.364Z,100367.14
2022-11-20T12:53:35.716Z,100364.23
2022-11-20T12:56:17.939Z,100359.62
2022-11-20T12:58:56.749Z,100353.61
2022-11-20T13:01:44.652Z,100341.38
2022-11-20T13:04:31.086Z,100336.70
2022-11-20T13:07:03.733Z,100331.74
2022-11-20T13:09:37.520Z,100333.05
2022-11-20T13:12:13.500Z,100331.70
2022-11-20T13:14:50.776Z,100333.45
2022-11-20T13:17:30.840Z,100330.71
2022-11-20T13:20:03.206Z,100324.88
2022-11-20T13:22:47.823Z,100313.75
2022-11-20T13:31:36.323Z,100297.01
2022-11-20T13:34:12.314Z,100297.35
2022-11-20T13:36:55.098Z,100307.58
2022-11-20T13:39:31.058Z,100312.45
2022-11-20T13:42:04.357Z,100314.23
2022-11-20T13:44:42.022Z,100309.63
2022-11-20T13:47:24.951Z,100303.75
2022-11-20T13:49:56.543Z,100295.52
2022-11-20T13:52:40.890Z,100295.02
2022-11-20T13:55:21.796Z,100309.17
2022-11-20T13:58:15.234Z,100316.58
2022-11-20T14:00:54.424Z,100329.17
2022-11-20T14:06:18.555Z,100356.41
2022-11-20T14:08:51.876Z,100359.52
2022-11-20T14:11:25.624Z,100361.62
2022-11-20T14:14:00.987Z,100370.19
2022-11-20T14:16:35.208Z,100367.98
2022-11-20T14:22:20.091Z,100372.84
2022-11-20T14:25:04.101Z,100372.02
2022-11-20T14:27:40.517Z,100371.65
2022-11-20T14:30:19.587Z,100367.92
2022-11-20T14:32:52.485Z,100362.88
2022-11-20T14:35:28.391Z,100362.50
2022-11-20T14:38:01.151Z,100366.67
2022-11-20T14:40:36.706Z,100365.75
2022-11-20T14:43:22.042Z,100361.46
2022-11-20T14:45:59.633Z,100374.35
2022-11-20T14:48:35.040Z,100375.02
2022-11-20T14:51:07.590Z,100378.27
2022-11-20T14:53:39.984Z,100387.69
2022-11-20T14:56:13.253Z,100397.92
2022-11-20T15:05:04.399Z,100412.58
2022-11-20T15:07:41.586Z,100428.00
2022-11-20T15:10:23.468Z,100433.67
2022-11-20T15:12:58.586Z,100420.58
2022-11-20T15:15:35.114Z,100406.84
2022-11-20T15:18:11.979Z,100406.96
2022-11-20T15:20:45.078Z,100406.70
2022-11-20T15:23:20.076Z,100409.45
2022-11-20T15:25:52.688Z,100406.85
2022-11-20T15:28:23.775Z,100402.35
2022-11-20T15:30:56.934Z,100407.56
2022-11-20T15:33:29.125Z,100408.73
2022-11-20T15:36:01.383Z,100415.04
2022-11-20T15:38:33.554Z,100419.88
2022-11-20T15:41:05.865Z,100420.61
2022-11-20T15:43:38.195Z,100416.35
2022-11-20T15:46:13.609Z,100409.73
2022-11-20T15:48:48.797Z,100402.52
2022-11-20T15:51:27.079Z,100400.58
2022-11-20T15:54:00.189Z,100391.28
2022-11-20T15:56:34.215Z,100380.77
2022-11-20T15:59:06.490Z,100377.27
2022-11-20T16:01:38.812Z,100372.89
2022-11-20T16:04:14.690Z,100370.65
2022-11-20T16:06:47.178Z,100371.14
2022-11-20T16:09:19.459Z,100360.67
2022-11-20T16:11:51.797Z,100356.64
2022-11-20T16:14:42.014Z,100355.26
2022-11-20T16:17:14.500Z,100354.34
2022-11-20T16:19:47.587Z,100345.80
2022-11-20T16:22:19.864Z,100335.01
2022-11-20T16:24:52.196Z,100325.61
2022-11-20T16:27:24.332Z,100318.08
2022-11-20T16:29:56.619Z,100309.73
2022-11-20T16:32:28.841Z,100304.05
2022-11-20T16:35:00.996Z,100309.15
2022-11-20T16:37:33.160Z,100304.29
2022-11-20T16:46:22.280Z,100288.36
2022-11-20T16:48:58.445Z,100276.77
2022-11-20T16:51:32.205Z,100267.63
2022-11-20T16:54:07.137Z,100253.44
2022-11-20T16:56:40.012Z,100237.59
2022-11-20T16:59:12.901Z,100220.41
2022-11-20T17:01:45.221Z,100226.59
2022-11-20T17:04:17.853Z,100233.98
2022-11-20T17:06:48.482Z,100234.95
2022-11-20T17:09:20.929Z,100235.13
2022-11-20T17:11:53.129Z,100230.43
2022-11-20T17:14:25.637Z,100232.52
2022-11-20T17:16:56.342Z,100235.83
2022-11-20T17:19:28.517Z,100227.69
2022-11-20T17:22:00.887Z,100219.42
2022-11-20T17:24:33.337Z,100221.81
2022-11-20T17:27:04.179Z,100221.88
2022-11-20T17:29:41.798Z,100219.86
2022-11-20T17:32:14.286Z,100216.02
2022-11-20T17:34:46.451Z,100212.44
2022-11-20T17:37:18.723Z,100206.58
2022-11-20T17:39:50.974Z,100207.75
2022-11-20T17:42:29.912Z,100215.47
2022-11-20T17:45:02.240Z,100211.59
2022-11-20T17:47:36.145Z,100210.38
2022-11-20T17:50:09.688Z,100207.58
2022-11-20T17:52:41.829Z,100207.80
2022-11-20T17:55:14.117Z,100207.40
2022-11-20T17:58:02.788Z,100215.05
2022-11-20T18:00:35.009Z,100229.18
2022-11-20T18:03:07.211Z,100248.68
2022-11-20T18:05:39.754Z,100247.23
2022-11-20T18:08:10.490Z,100246.30
2022-11-20T18:10:42.826Z,100255.09
2022-11-20T18:13:15.277Z,100260.67
2022-11-20T18:15:47.612Z,100257.77
2022-11-20T18:18:19.994Z,100256.80
2022-11-20T18:20:56.078Z,100256.79
2022-11-20T18:23:28.373Z,100255.81
2022-11-20T18:26:05.002Z,100263.42
2022-11-20T18:28:41.379Z,100260.08
2022-11-20T18:31:14.332Z,100254.89
2022-11-20T18:33:46.720Z,100255.84
2022-11-20T18:36:21.003Z,100256.23
2022-11-20T18:38:56.152Z,100258.83
2022-11-20T18:41:48.823Z,100266.27
2022-11-20T18:44:40.412Z,100266.21
2022-11-20T18:47:15.228Z,100271.17
2022-11-20T18:49:51.475Z,100275.14
2022-11-20T18:52:26.634Z,100277.41
2022-11-20T18:54:59.779Z,100278.46
2022-11-20T18:57:34.023Z,100278.45
2022-11-20T19:00:09.891Z,100280.42
2022-11-20T19:02:43.569Z,100292.58
2022-11-20T19:05:17.369Z,100299.03
2022-11-20T19:07:51.069Z,100298.48
2022-11-20T19:10:27.067Z,100282.20
2022-11-20T19:13:00.077Z,100264.38
2022-11-20T19:15:32.486Z,100269.45
2022-11-20T19:18:05.211Z,100274.16
2022-11-20T19:20:37.862Z,100270.58
2022-11-20T19:23:10.240Z,100270.48
2022-11-20T19:25:43.809Z,100279.14
2022-11-20T19:28:16.246Z,100278.99
2022-11-20T19:30:47.520Z,100282.35
2022-11-20T19:33:20.038Z,100287.00
2022-11-20T19:35:52.523Z,100286.56
2022-11-20T19:38:24.834Z,100282.41
2022-11-20T19:40:57.281Z,100289.77
2022-11-20T19:43:29.579Z,100282.36
2022-11-20T19:46:18.449Z,100282.48
2022-11-20T19:49:01.481Z,100273.64
2022-11-20T19:51:38.183Z,100270.13
2022-11-20T19:54:14.765Z,100262.02
2022-11-20T19:56:49.671Z,100259.27
2022-11-20T19:59:22.389Z,100253.55
2022-11-20T20:01:55.699Z,100240.02
2022-11-20T20:04:30.095Z,100238.73
2022-11-20T20:07:06.305Z,100245.50
2022-11-20T20:09:39.006Z,100250.35
2022-11-20T20:12:13.604Z,100253.30
2022-11-20T20:14:49.451Z,100250.18
2022-11-20T20:22:49.958Z,100241.58
2022-11-20T20:25:29.850Z,100225.27
2022-11-20T20:26:38.643Z,100237.49
2022-11-20T20:28:05.170Z,100214.58
2022-11-20T20:30:47.290Z,100216.16
2022-11-20T20:34:03.854Z,100211.20
2022-11-20T20:40:22.673Z,100197.95
2022-11-20T20:40:46.080Z,100190.69
2022-11-20T20:44:00.488Z,100187.09
2022-11-20T20:46:39.304Z,100192.70
2022-11-20T20:49:53.630Z,100197.46
2022-11-20T20:53:22.410Z,100195.56
2022-11-20T20:56:31.082Z,100200.45
2022-11-20T21:00:29.986Z,100193.45
2022-11-20T21:03:30.684Z,100191.45
2022-11-20T21:06:33.640Z,100170.94
2022-11-20T21:09:14.125Z,100163.01
2022-11-20T21:11:46.957Z,100158.36
2022-11-20T21:14:28.790Z,100150.73
2022-11-20T21:21:16.697Z,100155.33
2022-11-20T21:24:42.914Z,100152.02
2022-11-20T21:28:14.389Z,100145.79
2022-11-20T21:31:19.057Z,100143.59
2022-11-20T21:34:25.755Z,100145.59
2022-11-20T21:37:30.622Z,100142.05
2022-11-20T21:40:38.431Z,100138.57
2022-11-20T21:43:20.609Z,100142.19
2022-11-20T21:45:53.207Z,100156.75
2022-11-20T21:48:23.703Z,100159.77
2022-11-20T21:50:56.340Z,100150.23
2022-11-20T21:53:33.014Z,100138.41
2022-11-20T21:56:08.915Z,100138.40
2022-11-20T21:58:43.150Z,100148.35
2022-11-20T22:01:17.512Z,100149.91
2022-11-20T22:03:52.622Z,100143.48
2022-11-20T22:06:32.451Z,100142.84
2022-11-20T22:09:06.704Z,100142.50
2022-11-20T22:11:39.564Z,100140.05
2022-11-20T22:14:23.759Z,100135.48
2022-11-20T22:16:56.942Z,100133.42
2022-11-20T22:19:27.732Z,100129.69
2022-11-20T22:22:01.458Z,100138.10
2022-11-20T22:24:35.110Z,100137.02
2022-11-20T22:27:14.119Z,100141.70
2022-11-20T22:29:46.561Z,100135.35
2022-11-20T22:32:18.866Z,100125.17
2022-11-20T22:34:51.337Z,100112.35
2022-11-20T22:37:23.711Z,100101.73
2022-11-20T22:39:56.057Z,100094.94
2022-11-20T22:42:28.495Z,100087.54
2022-11-20T22:44:59.216Z,100074.89
2022-11-20T22:47:31.529Z,100069.02
2022-11-20T22:50:04.021Z,100056.56
2022-11-20T22:52:36.310Z,100051.36
2022-11-20T22:55:16.002Z,100052.48
2022-11-20T22:57:48.568Z,100051.91
2022-11-20T23:00:22.316Z,100047.77
2022-11-20T23:02:54.709Z,100048.20
2022-11-20T23:05:26.951Z,100049.41
2022-11-20T23:07:59.142Z,100048.55
2022-11-20T23:10:31.332Z,100041.45
2022-11-20T23:13:03.563Z,100038.91
2022-11-20T23:15:37.267Z,100030.95
2022-11-20T23:18:09.780Z,100033.48
2022-11-20T23:20:40.470Z,100031.02
2022-11-20T23:23:12.823Z,100027.30
2022-11-20T23:25:45.053Z,100023.01
2022-11-20T23:28:17.376Z,100016.73
2022-11-20T23:30:50.940Z,100012.63
2022-11-20T23:33:23.117Z,100013.14
2022-11-20T23:35:55.688Z,100009.41
2022-11-20T23:38:27.894Z,100004.14
2022-11-20T23:41:00.265Z,99999.79
2022-11-20T23:43:32.942Z,99998.77
2022-11-20T23:46:03.687Z,100000.14
2022-11-20T23:48:38.298Z,100004.27
2022-11-20T23:51:10.903Z,100002.08
2022-11-20T23:53:43.176Z,99996.33
2022-11-20T23:56:17.343Z,99988.12
2022-11-20T23:58:49.639Z,99975.27
